createdAt,value
2019-02-22T00:00:48.541Z,22.57
2019-02-22T00:03:17.035Z,22.07
2019-02-22T00:05:45.622Z,22.40
2019-02-22T00:08:14.117Z,22.20
2019-02-22T00:10:43.358Z,21.37
2019-02-22T00:13:11.855Z,21.90
2019-02-22T00:15:40.431Z,22.37
2019-02-22T00:18:08.912Z,21.57
2019-02-22T00:20:37.418Z,23.27
2019-02-22T00:23:05.899Z,23.17
2019-02-22T00:25:34.424Z,24.43
2019-02-22T00:28:03.083Z,24.33
2019-02-22T00:30:31.598Z,24.33
2019-02-22T00:33:00.078Z,23.23
2019-02-22T00:35:28.675Z,25.00
2019-02-22T00:37:58.161Z,25.17
2019-02-22T00:40:26.677Z,25.23
2019-02-22T00:42:55.164Z,24.80
2019-02-22T00:45:23.598Z,23.83
2019-02-22T00:47:52.097Z,22.77
2019-02-22T00:50:20.714Z,21.73
2019-02-22T00:52:49.239Z,19.47
2019-02-22T00:55:17.743Z,18.13
2019-02-22T00:57:46.302Z,17.10
2019-02-22T01:00:14.945Z,17.87
2019-02-22T01:02:43.438Z,18.23
2019-02-22T01:05:12.006Z,17.83
2019-02-22T01:07:40.559Z,18.13
2019-02-22T01:10:09.166Z,22.37
2019-02-22T01:12:37.654Z,23.20
2019-02-22T01:15:06.996Z,23.97
2019-02-22T01:17:35.485Z,23.43
2019-02-22T01:20:04.707Z,25.93
2019-02-22T01:22:33.239Z,27.77
2019-02-22T01:25:01.765Z,26.13
2019-02-22T01:27:30.236Z,26.67
2019-02-22T01:29:58.742Z,29.10
2019-02-22T01:32:27.307Z,29.60
2019-02-22T01:34:55.839Z,32.00
2019-02-22T01:37:24.414Z,34.17
2019-02-22T01:39:52.929Z,35.90
2019-02-22T01:42:21.445Z,35.77
2019-02-22T01:44:49.955Z,36.63
2019-02-22T01:47:18.436Z,37.30
2019-02-22T01:49:46.945Z,33.03
2019-02-22T01:52:15.441Z,35.10
2019-02-22T01:54:43.956Z,34.63
2019-02-22T01:57:12.524Z,33.70
2019-02-22T01:59:41.039Z,34.03
2019-02-22T02:02:09.651Z,32.77
2019-02-22T02:04:38.145Z,34.37
2019-02-22T02:07:08.261Z,36.37
2019-02-22T02:09:36.869Z,34.03
2019-02-22T02:12:05.354Z,33.37
2019-02-22T02:14:33.868Z,31.37
2019-02-22T02:17:02.368Z,31.70
2019-02-22T02:19:30.853Z,29.23
2019-02-22T02:21:59.359Z,29.97
2019-02-22T02:24:27.876Z,28.40
2019-02-22T02:26:56.375Z,27.93
2019-02-22T02:29:25.992Z,27.90
2019-02-22T02:31:54.516Z,28.60
2019-02-22T02:34:22.998Z,27.27
2019-02-22T02:36:51.515Z,26.27
2019-02-22T02:39:20.011Z,25.07
2019-02-22T02:41:48.519Z,25.47
2019-02-22T02:44:17.005Z,25.33
2019-02-22T02:46:45.547Z,24.20
2019-02-22T02:49:14.020Z,24.20
2019-02-22T02:51:42.605Z,23.97
2019-02-22T02:54:11.091Z,19.03
2019-02-22T02:56:40.627Z,18.87
2019-02-22T02:59:09.119Z,19.07
2019-02-22T03:01:37.815Z,16.80
2019-02-22T03:04:07.887Z,18.50
2019-02-22T03:06:38.500Z,15.83
2019-02-22T03:09:08.804Z,16.33
2019-02-22T03:11:37.321Z,16.80
2019-02-22T03:14:05.846Z,15.90
2019-02-22T03:16:34.333Z,16.27
2019-02-22T03:19:02.819Z,15.97
2019-02-22T03:21:31.339Z,15.50
2019-02-22T03:23:59.831Z,16.23
2019-02-22T03:26:28.346Z,14.93
2019-02-22T03:28:56.831Z,14.87
2019-02-22T03:31:25.351Z,13.67
2019-02-22T03:33:53.839Z,12.73
2019-02-22T03:36:22.379Z,12.43
2019-02-22T03:38:50.838Z,10.83
2019-02-22T03:41:19.350Z,10.07
2019-02-22T03:43:47.834Z,10.67
2019-02-22T03:46:16.340Z,9.27
2019-02-22T03:48:44.825Z,9.33
2019-02-22T03:51:13.333Z,9.00
2019-02-22T03:53:43.456Z,8.23
2019-02-22T03:56:12.023Z,8.00
2019-02-22T03:58:40.693Z,7.50
2019-02-22T04:01:09.203Z,8.00
2019-02-22T04:03:37.682Z,8.70
2019-02-22T04:06:06.201Z,9.70
2019-02-22T04:08:36.973Z,8.50
2019-02-22T04:11:05.490Z,8.40
2019-02-22T04:13:33.966Z,9.50
2019-02-22T04:16:02.481Z,8.70
2019-02-22T04:18:30.957Z,9.63
2019-02-22T04:20:59.544Z,7.93
2019-02-22T04:23:28.031Z,7.57
2019-02-22T04:25:56.544Z,7.60
2019-02-22T04:28:25.023Z,7.20
2019-02-22T04:30:53.518Z,7.47
2019-02-22T04:33:21.998Z,8.27
2019-02-22T04:35:50.496Z,6.93
2019-02-22T04:38:18.983Z,6.90
2019-02-22T04:40:47.494Z,7.83
2019-02-22T04:43:15.963Z,6.90
2019-02-22T04:45:44.453Z,6.10
2019-02-22T04:48:13.739Z,6.63
2019-02-22T04:50:42.220Z,7.63
2019-02-22T04:53:10.779Z,7.70
2019-02-22T04:55:39.368Z,7.47
2019-02-22T04:58:08.977Z,7.73
2019-02-22T05:00:37.454Z,7.63
2019-02-22T05:03:05.971Z,9.23
2019-02-22T05:05:34.447Z,8.73
2019-02-22T05:08:02.991Z,9.07
2019-02-22T05:10:31.468Z,9.10
2019-02-22T05:12:59.981Z,9.40
2019-02-22T05:15:29.340Z,9.17
2019-02-22T05:17:57.838Z,9.53
2019-02-22T05:20:26.338Z,9.50
2019-02-22T05:23:03.265Z,9.80
2019-02-22T05:25:25.040Z,9.83
2019-02-22T05:27:53.557Z,9.60
2019-02-22T05:30:22.051Z,10.17
2019-02-22T05:32:50.570Z,8.57
2019-02-22T05:35:19.049Z,7.70
2019-02-22T05:37:47.546Z,6.10
2019-02-22T05:40:16.087Z,6.10
2019-02-22T05:42:44.594Z,5.80
2019-02-22T05:45:13.126Z,7.00
2019-02-22T05:47:41.911Z,5.57
2019-02-22T05:50:10.485Z,5.73
2019-02-22T05:52:38.998Z,5.77
2019-02-22T05:55:09.081Z,6.00
2019-02-22T05:57:37.550Z,5.70
2019-02-22T06:00:07.556Z,5.30
2019-02-22T06:02:36.124Z,4.50
2019-02-22T06:05:05.761Z,4.43
2019-02-22T06:07:34.254Z,2.53
2019-02-22T06:10:02.741Z,2.73
2019-02-22T06:12:34.620Z,3.60
2019-02-22T06:15:01.477Z,4.43
2019-02-22T06:17:30.005Z,4.90
2019-02-22T06:19:58.484Z,5.07
2019-02-22T06:22:29.894Z,5.33
2019-02-22T06:24:57.206Z,5.33
2019-02-22T06:27:25.709Z,5.60
2019-02-22T06:29:54.221Z,6.50
2019-02-22T06:32:22.713Z,6.57
2019-02-22T06:34:51.191Z,7.00
2019-02-22T06:37:19.706Z,7.57
2019-02-22T06:39:48.207Z,6.63
2019-02-22T06:42:16.689Z,7.73
2019-02-22T06:44:45.180Z,8.43
2019-02-22T06:47:13.688Z,9.30
2019-02-22T06:49:44.492Z,10.30
2019-02-22T06:52:13.227Z,11.57
2019-02-22T06:54:41.729Z,13.33
2019-02-22T06:57:10.245Z,13.37
2019-02-22T06:59:38.730Z,15.43
2019-02-22T07:02:08.183Z,16.70
2019-02-22T07:04:36.691Z,18.17
2019-02-22T07:07:05.344Z,15.37
2019-02-22T07:09:33.832Z,21.17
2019-02-22T07:12:03.970Z,21.67
2019-02-22T07:14:32.484Z,23.83
2019-02-22T07:17:00.974Z,27.73
2019-02-22T07:19:29.489Z,24.60
2019-02-22T07:21:57.979Z,26.63
2019-02-22T07:24:26.497Z,25.60
2019-02-22T07:26:55.033Z,28.80
2019-02-22T07:29:23.545Z,32.23
2019-02-22T07:31:52.043Z,31.53
2019-02-22T07:34:20.567Z,30.87
2019-02-22T07:36:50.570Z,32.67
2019-02-22T07:39:27.448Z,30.10
2019-02-22T07:41:49.315Z,35.23
2019-02-22T07:44:17.845Z,33.70
2019-02-22T07:46:46.361Z,34.03
2019-02-22T07:49:23.445Z,34.77
2019-02-22T07:51:52.008Z,30.17
2019-02-22T07:54:20.537Z,29.20
2019-02-22T07:56:49.122Z,31.73
2019-02-22T07:59:17.640Z,31.63
2019-02-22T08:01:47.629Z,29.03
2019-02-22T08:04:16.405Z,27.40
2019-02-22T08:06:44.906Z,30.77
2019-02-22T08:09:13.427Z,32.83
2019-02-22T08:11:41.933Z,31.00
2019-02-22T08:14:10.575Z,31.83
2019-02-22T08:16:39.077Z,32.13
2019-02-22T08:19:07.587Z,33.37
2019-02-22T08:21:36.077Z,31.67
2019-02-22T08:24:04.709Z,31.73
2019-02-22T08:26:33.275Z,30.57
2019-02-22T08:29:01.790Z,28.57
2019-02-22T08:31:30.287Z,28.70
2019-02-22T08:33:58.950Z,30.03
2019-02-22T08:36:27.458Z,29.00
2019-02-22T08:38:56.130Z,26.70
2019-02-22T08:41:24.614Z,17.63
2019-02-22T08:43:53.131Z,23.07
2019-02-22T08:46:21.634Z,21.03
2019-02-22T08:48:50.160Z,20.87
2019-02-22T08:51:18.844Z,19.93
2019-02-22T08:53:47.318Z,19.47
2019-02-22T08:56:15.815Z,18.57
2019-02-22T08:58:44.316Z,16.73
2019-02-22T09:01:12.835Z,19.73
2019-02-22T09:03:50.779Z,17.97
2019-02-22T09:06:11.685Z,16.30
2019-02-22T09:08:40.150Z,16.07
2019-02-22T09:11:08.732Z,16.47
2019-02-22T09:13:43.705Z,14.77
2019-02-22T09:16:07.481Z,13.70
2019-02-22T09:18:35.975Z,13.63
2019-02-22T09:21:04.490Z,14.47
2019-02-22T09:23:32.980Z,15.17
2019-02-22T09:26:01.494Z,13.50
2019-02-22T09:28:29.995Z,13.60
2019-02-22T09:30:58.599Z,14.07
2019-02-22T09:33:27.107Z,13.47
2019-02-22T09:35:55.629Z,11.80
2019-02-22T09:38:24.136Z,14.80
2019-02-22T09:40:52.682Z,14.53
2019-02-22T09:43:21.171Z,14.47
2019-02-22T09:45:49.684Z,14.13
2019-02-22T09:48:18.175Z,14.33
2019-02-22T09:50:46.690Z,15.67
2019-02-22T09:53:15.197Z,14.10
2019-02-22T09:55:43.722Z,13.13
2019-02-22T09:58:12.223Z,10.40
2019-02-22T10:00:40.726Z,11.40
2019-02-22T10:03:09.212Z,9.87
2019-02-22T10:05:37.722Z,8.03
2019-02-22T10:08:06.206Z,7.40
2019-02-22T10:10:34.739Z,7.87
2019-02-22T10:13:03.215Z,8.17
2019-02-22T10:15:31.741Z,8.53
2019-02-22T10:18:00.232Z,8.83
2019-02-22T10:20:28.753Z,7.90
2019-02-22T10:22:57.229Z,6.80
2019-02-22T10:25:25.740Z,6.83
2019-02-22T10:27:54.220Z,7.40
2019-02-22T10:30:22.729Z,6.97
2019-02-22T10:32:51.216Z,6.47
2019-02-22T10:35:19.714Z,6.83
2019-02-22T10:37:48.200Z,6.37
2019-02-22T10:40:16.714Z,6.17
2019-02-22T10:42:45.202Z,6.23
2019-02-22T10:45:13.705Z,6.63
2019-02-22T10:47:42.178Z,6.73
2019-02-22T10:50:10.826Z,6.13
2019-02-22T10:52:39.298Z,6.40
2019-02-22T10:55:12.547Z,6.50
2019-02-22T10:57:41.036Z,6.80
2019-02-22T11:00:12.854Z,6.87
2019-02-22T11:02:41.403Z,6.40
2019-02-22T11:05:10.083Z,6.40
2019-02-22T11:07:38.561Z,7.07
2019-02-22T11:10:09.885Z,6.77
2019-02-22T11:12:38.361Z,6.40
2019-02-22T11:15:09.497Z,6.97
2019-02-22T11:17:37.995Z,6.67
2019-02-22T11:20:10.700Z,7.03
2019-02-22T11:22:39.273Z,6.60
2019-02-22T11:25:10.944Z,6.47
2019-02-22T11:27:39.426Z,5.90
2019-02-22T11:30:12.843Z,5.90
2019-02-22T11:32:41.384Z,5.40
2019-02-22T11:35:10.766Z,5.80
2019-02-22T11:37:39.247Z,5.60
2019-02-22T11:40:09.297Z,5.77
2019-02-22T11:42:37.783Z,5.57
2019-02-22T11:45:07.729Z,5.30
2019-02-22T11:47:36.201Z,5.20
2019-02-22T11:50:07.558Z,5.60
2019-02-22T11:52:36.051Z,5.37
2019-02-22T11:55:06.654Z,4.43
2019-02-22T11:57:35.231Z,5.23
2019-02-22T12:00:05.687Z,5.40
2019-02-22T12:02:34.271Z,5.17
2019-02-22T12:05:02.756Z,4.87
2019-02-22T12:07:31.273Z,5.20
2019-02-22T12:09:59.740Z,5.53
2019-02-22T12:12:28.247Z,5.33
2019-02-22T12:14:56.735Z,5.53
2019-02-22T12:17:25.393Z,5.47
2019-02-22T12:19:53.871Z,5.37
2019-02-22T12:22:22.369Z,5.27
2019-02-22T12:24:50.853Z,6.30
2019-02-22T12:27:19.412Z,7.00
2019-02-22T12:29:48.067Z,6.50
2019-02-22T12:32:16.568Z,6.43
2019-02-22T12:34:45.044Z,6.13
2019-02-22T12:37:13.566Z,6.03
2019-02-22T12:39:42.025Z,5.73
2019-02-22T12:42:10.532Z,6.03
2019-02-22T12:44:39.007Z,6.63
2019-02-22T12:47:08.373Z,6.47
2019-02-22T12:49:36.856Z,6.30
2019-02-22T12:52:05.440Z,6.10
2019-02-22T12:54:33.930Z,6.20
2019-02-22T12:57:02.440Z,5.90
2019-02-22T12:59:30.921Z,6.53
2019-02-22T13:01:59.442Z,12.63
2019-02-22T13:04:27.930Z,23.70
2019-02-22T13:06:56.445Z,11.00
2019-02-22T13:09:35.999Z,6.80
2019-02-22T13:11:55.164Z,10.80
2019-02-22T13:14:23.652Z,8.83
2019-02-22T13:16:52.162Z,6.60
2019-02-22T13:19:20.659Z,15.23
2019-02-22T13:21:49.205Z,8.13
2019-02-22T13:24:17.693Z,9.07
2019-02-22T13:26:46.208Z,7.47
2019-02-22T13:29:14.730Z,7.40
2019-02-22T13:31:43.240Z,6.07
2019-02-22T13:34:11.723Z,6.70
2019-02-22T13:36:40.230Z,6.40
2019-02-22T13:39:08.711Z,6.03
2019-02-22T13:41:37.297Z,7.97
2019-02-22T13:44:05.807Z,6.53
2019-02-22T13:46:34.320Z,6.97
2019-02-22T13:49:02.870Z,9.73
2019-02-22T13:51:33.964Z,9.20
2019-02-22T13:54:02.318Z,7.07
2019-02-22T13:56:32.520Z,7.30
2019-02-22T13:59:01.003Z,7.50
2019-02-22T14:01:29.528Z,6.63
2019-02-22T14:03:58.021Z,7.23
2019-02-22T14:06:26.624Z,6.67
2019-02-22T14:08:55.111Z,6.37
2019-02-22T14:11:23.668Z,6.10
2019-02-22T14:13:52.154Z,6.30
2019-02-22T14:16:20.673Z,6.17
2019-02-22T14:18:49.168Z,11.13
2019-02-22T14:21:17.688Z,10.13
2019-02-22T14:23:46.176Z,7.07
2019-02-22T14:26:14.739Z,7.17
2019-02-22T14:28:43.260Z,6.70
2019-02-22T14:31:11.740Z,6.07
2019-02-22T14:33:40.258Z,5.77
2019-02-22T14:36:08.749Z,6.30
2019-02-22T14:38:37.293Z,6.67
2019-02-22T14:41:05.789Z,6.20
2019-02-22T14:43:34.795Z,7.23
2019-02-22T14:46:03.305Z,6.03
2019-02-22T14:48:31.826Z,6.40
2019-02-22T14:51:00.314Z,6.97
2019-02-22T14:53:28.831Z,6.30
2019-02-22T14:55:59.792Z,6.00
2019-02-22T14:58:27.579Z,6.00
2019-02-22T15:00:56.079Z,6.60
2019-02-22T15:03:24.598Z,6.37
2019-02-22T15:05:53.089Z,6.60
2019-02-22T15:08:21.613Z,6.23
2019-02-22T15:10:50.182Z,6.13
2019-02-22T15:13:18.908Z,6.30
2019-02-22T15:16:00.579Z,6.33
2019-02-22T15:18:24.951Z,6.47
2019-02-22T15:20:53.452Z,5.93
2019-02-22T15:23:21.980Z,5.57
2019-02-22T15:25:50.481Z,5.80
2019-02-22T15:28:19.007Z,6.33
2019-02-22T15:30:47.647Z,5.13
2019-02-22T15:33:16.194Z,5.60
2019-02-22T15:35:44.665Z,4.90
2019-02-22T15:38:13.182Z,4.93
2019-02-22T15:40:41.663Z,4.57
2019-02-22T15:43:10.167Z,5.30
2019-02-22T15:45:38.653Z,5.13
2019-02-22T15:48:07.155Z,4.73
2019-02-22T15:50:35.626Z,4.90
2019-02-22T15:53:04.254Z,4.70
2019-02-22T15:55:32.909Z,5.27
2019-02-22T15:58:01.405Z,5.30
2019-02-22T16:00:34.198Z,4.33
2019-02-22T16:03:02.711Z,4.57
2019-02-22T16:05:39.105Z,10.67
2019-02-22T16:08:08.026Z,4.40
2019-02-22T16:10:36.645Z,4.90
2019-02-22T16:13:05.222Z,5.07
2019-02-22T16:15:33.780Z,5.00
2019-02-22T16:18:02.302Z,4.77
2019-02-22T16:20:30.859Z,4.90
2019-02-22T16:22:59.378Z,5.00
2019-02-22T16:25:27.864Z,5.23
2019-02-22T16:27:57.923Z,5.40
2019-02-22T16:30:28.108Z,5.53
2019-02-22T16:32:56.608Z,6.27
2019-02-22T16:35:25.115Z,5.00
2019-02-22T16:37:53.622Z,5.03
2019-02-22T16:40:22.119Z,4.83
2019-02-22T16:42:50.626Z,5.00
2019-02-22T16:45:19.149Z,5.27
2019-02-22T16:47:47.663Z,5.40
2019-02-22T16:50:16.152Z,5.20
2019-02-22T16:52:45.353Z,5.17
2019-02-22T16:55:16.924Z,5.30
2019-02-22T16:57:45.426Z,5.10
2019-02-22T17:00:16.064Z,5.77
2019-02-22T17:02:44.652Z,5.67
2019-02-22T17:05:15.475Z,5.93
2019-02-22T17:07:43.996Z,6.57
2019-02-22T17:10:12.670Z,6.37
2019-02-22T17:12:41.253Z,6.10
2019-02-22T17:15:12.057Z,7.83
2019-02-22T17:17:40.574Z,5.60
2019-02-22T17:20:12.504Z,5.77
2019-02-22T17:22:40.985Z,5.30
2019-02-22T17:25:14.977Z,6.20
2019-02-22T17:27:43.487Z,6.50
2019-02-22T17:30:17.049Z,6.93
2019-02-22T17:32:45.590Z,6.53
2019-02-22T17:35:14.154Z,5.80
2019-02-22T17:37:42.620Z,6.30
2019-02-22T17:40:13.775Z,6.40
2019-02-22T17:42:42.270Z,7.20
2019-02-22T17:45:10.799Z,7.50
2019-02-22T17:47:39.283Z,9.60
2019-02-22T17:50:09.843Z,7.70
2019-02-22T17:52:38.336Z,7.97
2019-02-22T17:55:11.495Z,7.03
2019-02-22T17:57:40.066Z,7.17
2019-02-22T18:00:15.359Z,7.70
2019-02-22T18:02:43.914Z,7.37
2019-02-22T18:05:12.667Z,7.63
2019-02-22T18:07:41.152Z,7.37
2019-02-22T18:10:10.802Z,6.40
2019-02-22T18:12:39.293Z,7.00
2019-02-22T18:15:10.862Z,6.37
2019-02-22T18:17:39.892Z,6.50
2019-02-22T18:20:09.148Z,6.47
2019-02-22T18:22:37.645Z,6.20
2019-02-22T18:25:08.399Z,7.43
2019-02-22T18:27:36.953Z,6.50
2019-02-22T18:30:14.447Z,6.87
2019-02-22T18:32:42.946Z,6.93
2019-02-22T18:35:11.493Z,7.10
2019-02-22T18:37:39.983Z,7.00
2019-02-22T18:40:11.762Z,7.83
2019-02-22T18:42:41.750Z,6.93
2019-02-22T18:45:10.656Z,7.90
2019-02-22T18:47:39.153Z,8.33
2019-02-22T18:50:10.108Z,8.27
2019-02-22T18:52:38.668Z,8.67
2019-02-22T18:55:11.282Z,8.90
2019-02-22T18:57:39.994Z,9.13
2019-02-22T19:00:15.381Z,9.10
2019-02-22T19:02:43.866Z,8.50
2019-02-22T19:05:12.378Z,9.33
2019-02-22T19:07:40.861Z,9.10
2019-02-22T19:10:11.822Z,9.00
2019-02-22T19:12:40.484Z,8.63
2019-02-22T19:15:11.332Z,8.77
2019-02-22T19:17:39.814Z,8.63
2019-02-22T19:20:18.602Z,8.90
2019-02-22T19:22:47.081Z,8.77
2019-02-22T19:25:15.596Z,8.83
2019-02-22T19:27:46.427Z,8.47
2019-02-22T19:30:16.653Z,8.60
2019-02-22T19:32:45.148Z,9.00
2019-02-22T19:35:13.662Z,9.03
2019-02-22T19:37:42.149Z,9.53
2019-02-22T19:40:13.451Z,8.33
2019-02-22T19:42:41.944Z,9.60
2019-02-22T19:45:11.597Z,9.20
2019-02-22T19:47:42.264Z,9.67
2019-02-22T19:50:14.300Z,9.70
2019-02-22T19:52:42.788Z,8.60
2019-02-22T19:55:13.944Z,8.90
2019-02-22T19:57:42.403Z,10.03
2019-02-22T20:00:16.568Z,10.20
2019-02-22T20:02:45.063Z,10.20
2019-02-22T20:05:14.730Z,10.00
2019-02-22T20:07:43.231Z,10.73
2019-02-22T20:10:17.949Z,9.67
2019-02-22T20:12:44.346Z,10.13
2019-02-22T20:15:14.909Z,9.70
2019-02-22T20:17:53.336Z,10.27
2019-02-22T20:20:18.324Z,9.13
2019-02-22T20:22:46.889Z,9.97
2019-02-22T20:25:16.788Z,9.90
2019-02-22T20:27:45.278Z,9.13
2019-02-22T20:30:16.160Z,9.83
2019-02-22T20:32:44.682Z,9.60
2019-02-22T20:35:24.353Z,10.30
2019-02-22T20:37:53.466Z,11.23
2019-02-22T20:40:22.323Z,11.13
2019-02-22T20:42:53.196Z,12.07
2019-02-22T20:45:21.741Z,11.70
2019-02-22T20:47:50.234Z,12.53
2019-02-22T20:50:18.771Z,12.03
2019-02-22T20:52:47.257Z,11.77
2019-02-22T20:55:15.774Z,13.07
2019-02-22T20:57:44.272Z,13.07
2019-02-22T21:00:23.803Z,13.40
2019-02-22T21:02:52.302Z,14.17
2019-02-22T21:05:20.822Z,13.87
2019-02-22T21:07:49.339Z,14.77
2019-02-22T21:10:23.444Z,14.43
2019-02-22T21:12:53.291Z,15.97
2019-02-22T21:15:22.292Z,14.90
2019-02-22T21:17:51.290Z,14.33
2019-02-22T21:20:22.874Z,15.67
2019-02-22T21:22:51.672Z,13.80
2019-02-22T21:25:20.488Z,14.50
2019-02-22T21:27:49.393Z,15.73
2019-02-22T21:30:21.067Z,15.33
2019-02-22T21:32:51.673Z,14.37
2019-02-22T21:35:20.675Z,14.47
2019-02-22T21:37:49.458Z,14.60
2019-02-22T21:40:18.242Z,15.57
2019-02-22T21:42:46.884Z,15.40
2019-02-22T21:45:16.375Z,14.57
2019-02-22T21:47:54.130Z,15.13
2019-02-22T21:50:16.492Z,15.43
2019-02-22T21:52:45.320Z,14.83
2019-02-22T21:55:15.277Z,14.33
2019-02-22T21:57:44.862Z,15.33
2019-02-22T22:00:16.520Z,13.10
2019-02-22T22:02:45.165Z,14.10
2019-02-22T22:05:13.904Z,14.10
2019-02-22T22:07:42.679Z,13.50
2019-02-22T22:10:11.253Z,13.67
2019-02-22T22:12:39.899Z,12.40
2019-02-22T22:15:13.717Z,12.80
2019-02-22T22:17:42.577Z,12.00
2019-02-22T22:20:11.651Z,12.87
2019-02-22T22:22:40.492Z,12.60
2019-02-22T22:25:13.726Z,12.60
2019-02-22T22:27:42.646Z,12.77
2019-02-22T22:30:15.689Z,13.17
2019-02-22T22:32:45.389Z,12.67
2019-02-22T22:35:16.396Z,12.80
2019-02-22T22:37:45.070Z,13.77
2019-02-22T22:40:15.039Z,13.67
2019-02-22T22:42:45.036Z,13.77
2019-02-22T22:45:16.128Z,13.57
2019-02-22T22:47:44.929Z,13.03
2019-02-22T22:50:18.328Z,13.67
2019-02-22T22:52:46.897Z,13.20
2019-02-22T22:55:15.484Z,14.53
2019-02-22T22:57:44.353Z,13.83
2019-02-22T23:00:19.330Z,12.83
2019-02-22T23:02:48.167Z,13.77
2019-02-22T23:05:16.825Z,13.80
2019-02-22T23:07:45.369Z,13.03
2019-02-22T23:10:14.068Z,12.90
2019-02-22T23:12:44.284Z,12.40
2019-02-22T23:15:12.937Z,13.23
2019-02-22T23:17:41.449Z,13.77
2019-02-22T23:20:10.101Z,13.67
2019-02-22T23:22:38.626Z,12.50
2019-02-22T23:25:07.534Z,13.30
2019-02-22T23:27:36.052Z,13.40
2019-02-22T23:30:06.290Z,13.33
2019-02-22T23:32:34.808Z,14.47
2019-02-22T23:35:03.565Z,13.17
2019-02-22T23:37:32.080Z,14.90
2019-02-22T23:40:00.569Z,14.03
2019-02-22T23:42:29.084Z,15.23
2019-02-22T23:44:57.571Z,15.40
2019-02-22T23:47:26.101Z,14.20
2019-02-22T23:49:54.594Z,14.27
2019-02-22T23:52:23.111Z,15.13
2019-02-22T23:54:51.596Z,14.93
2019-02-22T23:57:20.108Z,14.17
2019-02-22T23:59:48.599Z,14.93
